| Date | Time | Temp. (oF) | Dew Point (oF) | Rel. Hum. (%) | Press. (in.) | Wind Dir. | Wind Speed (mph) | Hourly Rainfall (in.) |
|
|---|---|---|---|---|---|---|---|---|---|
| 1 | 12/23 | 00:00 | 40 | 39 | 99 | 30.06 | SE | 3 | 0.00 |
| 2 | 12/22 | 23:00 | 41 | 38 | 91 | 30.07 | ENE | 3 | 0.00 |
| 3 | 12/22 | 22:00 | 42 | 36 | 82 | 30.09 | ENE | 1 | 0.00 |
| 4 | 12/22 | 21:00 | 42 | 35 | 78 | 30.09 | E | 1 | 0.00 |
| 5 | 12/22 | 20:00 | 41 | 34 | 79 | 30.10 | ESE | 2 | 0.00 |
| 6 | 12/22 | 19:00 | 41 | 34 | 76 | 30.11 | ESE | 1 | 0.00 |
| 7 | 12/22 | 18:00 | 42 | 33 | 73 | 30.11 | S | 0 | 0.00 |
| 8 | 12/22 | 17:00 | 43 | 33 | 69 | 30.09 | SSE | 1 | 0.00 |
| 9 | 12/22 | 16:00 | 45 | 33 | 63 | 30.08 | SSE | 3 | 0.00 |
| 10 | 12/22 | 15:00 | 45 | 32 | 62 | 30.07 | SSE | 3 | 0.00 |
| 11 | 12/22 | 14:00 | 45 | 32 | 62 | 30.07 | SSE | 2 | 0.00 |
| 12 | 12/22 | 13:00 | 44 | 31 | 62 | 30.06 | NNE | 5 | 0.00 |
| 13 | 12/22 | 12:00 | 43 | 31 | 64 | 30.12 | SSE | 4 | 0.00 |
| 14 | 12/22 | 11:00 | 40 | 30 | 69 | 30.14 | SSE | 4 | 0.00 |
| 15 | 12/22 | 10:00 | 38 | 29 | 71 | 30.18 | SE | 3 | 0.00 |
| 16 | 12/22 | 09:00 | 36 | 27 | 71 | 30.21 | SSE | 3 | 0.00 |
| 17 | 12/22 | 08:00 | 34 | 26 | 75 | 30.21 | ESE | 2 | 0.00 |
| 18 | 12/22 | 07:00 | 34 | 26 | 73 | 30.20 | E | 2 | 0.00 |
| 19 | 12/22 | 06:00 | 34 | 25 | 72 | 30.22 | E | 5 | 0.00 |
| 20 | 12/22 | 05:00 | 34 | 23 | 65 | 30.21 | SSE | 2 | 0.00 |
| 21 | 12/22 | 04:00 | 33 | 23 | 68 | 30.21 | SE | 4 | 0.00 |
| 22 | 12/22 | 03:00 | 31 | 23 | 74 | 30.24 | NE | 1 | 0.00 |
| 23 | 12/22 | 02:00 | 30 | 23 | 77 | 30.24 | ESE | 3 | 0.00 |
| 24 | 12/22 | 01:00 | 28 | 22 | 81 | 30.22 | NE | 4 | 0.00 |